• Join FlightAware (Why Join?)
  • Login
  • US Flag 
11:38PM EDT


 

Airport Tracker/Info


-or-


 

Live Flight TrackerFlight Track Log ✈ DAL1007 ✈ 28-Aug-2013 ✈ KMCI - KATL

Flight Track Log - Related Links

Times and Time Zones

All times are in EDT time to prevent confusion due to time zone crossing. See the DAL1007 flight status page for this flight to view local times or setup timezone preferences in your user account.

Time Position Orientation Groundspeed Altitude Reporting Facility
EDT Latitude Longitude Course Direction KTS MPH feet Rate Location/Type
05:54PM 39.2833 -94.7167 169° South 166 191 1,900  Level Kansas City TRACON
05:55PM 39.2333 -94.7167 180° South 216 249 3,300 1,860 Climbing Kansas City TRACON
05:56PM 39.1867 -94.7136 177° South 255 293 4,800 3,000 Climbing Kansas City Center
05:57PM 38.9738 -94.6524 165° South  Level FlightAware Approximate
05:57PM 39.1006 -94.6942 170° South 278 320 8,600  Level Kansas City Center
05:58PM 38.8621 -94.6224 171° South  Level FlightAware Approximate
05:58PM 39.0244 -94.6764 170° South 289 333 10,800  Level Kansas City Center
05:59PM 38.7491 -94.5998 169° South  Level FlightAware Approximate
05:59PM 38.9311 -94.6531 169° South 350 403 11,900  Level Kansas City Center
06:00PM 38.6384 -94.5762 169° South  Level FlightAware Approximate
06:00PM 38.8106 -94.6233 169° South 395 455 13,900  Level Kansas City Center
06:01PM 38.7053 -94.5972 169° South 401 461 15,900 1,980 Climbing Kansas City Center
06:02PM 38.5778 -94.5647 169° South 415 478 18,000 1,740 Climbing Kansas City Center
06:03PM 38.4658 -94.5375 169° South 425 489 19,600 1,620 Climbing Kansas City Center
06:04PM 38.3325 -94.5039 169° South 436 502 21,400 1,440 Climbing Kansas City Center
06:05PM 38.2292 -94.4336 152° Southeast 455 524 22,600 1,200 Climbing Kansas City Center
06:06PM 38.1281 -94.3072 135° Southeast 458 527 24,000 1,260 Climbing Kansas City Center
06:07PM 38.0428 -94.1928 133° Southeast 465 535 25,300 1,500 Climbing Kansas City Center
06:08PM 37.9628 -94.0300 122° Southeast 471 542 27,200 1,680 Climbing Kansas City Center
06:09PM 37.8978 -93.8883 120° Southeast 468 539 28,800 1,500 Climbing Kansas City Center
06:10PM 37.8328 -93.7469 120° Southeast 467 537 30,300 1,380 Climbing Kansas City Center
06:11PM 37.7686 -93.6067 120° Southeast 463 533 31,700 1,260 Climbing Kansas City Center
06:12PM 37.7047 -93.4683 120° Southeast 459 528 33,000 600 Climbing Kansas City Center
06:13PM 37.6411 -93.3292 120° Southeast 459 528 33,000  Level Kansas City Center
06:14PM 37.5642 -93.1636 120° Southeast 457 526 33,000  Level Kansas City Center
06:15PM 37.4969 -93.0244 121° Southeast 462 532 33,000  Level Kansas City Center
06:16PM 37.4306 -92.8850 121° Southeast 465 535 33,000  Level Kansas City Center
06:17PM 37.3658 -92.7483 121° Southeast 461 531 33,000  Level Kansas City Center
06:18PM 37.3003 -92.6111 121° Southeast 460 529 33,000  Level Kansas City Center
06:19PM 37.2342 -92.4736 121° Southeast 460 529 33,000  Level Kansas City Center
06:20PM 37.1553 -92.3097 121° Southeast 460 529 33,000  Level Kansas City Center
06:22PM 37.0889 -92.1725 121° Southeast 461 531 33,000  Level Kansas City Center
06:23PM 37.0225 -92.0361 121° Southeast 461 531 33,000  Level Kansas City Center
06:24PM 36.9556 -91.9006 122° Southeast 461 531 33,000  Level Kansas City Center
06:25PM 36.8881 -91.7622 121° Southeast 463 533 33,000  Level Kansas City Center
06:26PM 36.8086 -91.6003 121° Southeast 460 529 33,000  Level Kansas City Center
06:27PM 36.7408 -91.4631 122° Southeast 463 533 33,000  Level Kansas City Center
06:28PM 36.6842 -91.3531 123° Southeast 465 535 33,000  Level Memphis Center
06:29PM 36.6164 -91.2203 122° Southeast 465 535 33,000  Level Memphis Center
06:30PM 36.5483 -91.0881 123° Southeast 460 529 33,000  Level Memphis Center
06:31PM 36.4803 -90.9506 122° Southeast 460 529 33,000  Level Memphis Center
06:32PM 36.4142 -90.8186 122° Southeast 460 529 33,000  Level Memphis Center
06:33PM 36.3417 -90.6789 123° Southeast 465 535 33,000  Level Memphis Center
06:34PM 36.2731 -90.5450 122° Southeast 465 535 33,000  Level Memphis Center
06:35PM 36.2044 -90.4111 122° Southeast 460 529 33,000  Level Memphis Center
06:36PM 36.1356 -90.2772 122° Southeast 460 529 33,000  Level Memphis Center
06:37PM 36.0667 -90.1464 123° Southeast 460 529 33,000  Level Memphis Center
06:38PM 35.9975 -90.0106 122° Southeast 460 529 33,000  Level Memphis Center
06:39PM 35.9283 -89.8725 122° Southeast 466 536 33,000  Level Memphis Center
06:40PM 35.8567 -89.7397 124° Southeast 466 536 33,000  Level Memphis Center
06:41PM 35.7892 -89.6047 122° Southeast 466 536 33,000  Level Memphis Center
06:42PM 35.7217 -89.4672 121° Southeast 466 536 33,000  Level Memphis Center
06:43PM 35.6744 -89.3067 110° East 455 524 33,000  Level Memphis Center
06:44PM 35.6253 -89.1617 113° Southeast 455 524 33,000  Level Memphis Center
06:45PM 35.5822 -89.0322 112° Southeast 455 524 33,000  Level Memphis Center
06:46PM 35.5325 -88.8875 113° Southeast 455 524 33,000  Level Memphis Center
06:47PM 35.4808 -88.7431 114° Southeast 455 524 33,000  Level Memphis Center
06:48PM 35.4308 -88.5989 113° Southeast 455 524 33,000  Level Memphis Center
06:49PM 35.3786 -88.4497 113° Southeast 442 509 33,000  Level Memphis Center
06:50PM 35.3283 -88.3033 113° Southeast 437 503 33,000  Level Memphis Center
06:51PM 35.2800 -88.1619 113° Southeast 443 510 33,000  Level Memphis Center
06:52PM 35.2314 -88.0208 113° Southeast 448 516 33,000  Level Memphis Center
06:53PM 35.1808 -87.8825 114° Southeast 453 521 33,000  Level Memphis Center
06:54PM 35.1319 -87.7394 113° Southeast 458 527 33,000  Level Memphis Center
06:55PM 35.0789 -87.6039 116° Southeast 446 513 33,000  Level Memphis Center
06:56PM 35.0297 -87.4611 113° Southeast 451 519 33,000  Level Memphis Center
06:57PM 34.9783 -87.3208 114° Southeast 452 520 33,000  Level Memphis Center
06:59PM 34.8631 -86.9853 113° Southeast 462 532 33,000  Level Atlanta Center
07:00PM 34.8119 -86.8469 114° Southeast 449 517 33,000 -600 Level Atlanta Center
07:01PM 34.7608 -86.7061 114° Southeast 444 511 31,800 -1,380 Descending Atlanta Center
07:02PM 34.7097 -86.5656 114° Southeast 444 511 30,300 -1,560 Descending Atlanta Center
07:03PM 34.6522 -86.4097 114° Southeast 449 517 28,700 -1,560 Descending Atlanta Center
07:04PM 34.5964 -86.2644 115° Southeast 454 522 27,200 -1,320 Descending Atlanta Center
07:05PM 34.5406 -86.1167 115° Southeast 466 536 26,100 -1,140 Descending Atlanta Center
07:06PM 34.4886 -85.9742 114° Southeast 466 536 25,000 -960 Descending Atlanta Center
07:07PM 34.4344 -85.8319 115° Southeast 461 531 24,200 -840 Descending Atlanta Center
07:08PM 34.3922 -85.7253 116° Southeast 454 522 23,400 -1,560 Descending Atlanta Center
07:09PM 34.3336 -85.5658 114° Southeast 438 504 21,100 -2,340 Descending Atlanta Center
07:10PM 34.2850 -85.4392 115° Southeast 433 498 18,800 -2,100 Descending Atlanta Center
07:11PM 34.2406 -85.3203 114° Southeast 406 467 17,000 -1,500 Descending Atlanta Center
07:12PM 34.2019 -85.2192 115° Southeast 357 411 15,800 -1,500 Descending Atlanta Center
07:13PM 34.1653 -85.1233 115° Southeast 323 372 14,100 -900 Descending Atlanta Center
07:14PM 34.1053 -85.0447 133° Southeast 317 365 14,000 -60 Descending Atlanta Center
07:15PM 34.0433 -84.9689 135° Southeast 317 365 14,000  Level Atlanta Center
07:16PM 33.9833 -84.8881 132° Southeast 317 365 14,000  Level Atlanta Center
07:17PM 33.9214 -84.8097 134° Southeast 317 365 14,000 -720 Level Atlanta Center
07:18PM 33.8592 -84.7367 136° Southeast 317 365 12,600 -1,020 Descending Atlanta Center
07:19PM 33.7969 -84.6636 136° Southeast 317 365 12,000 -300 Descending Atlanta Center
07:20PM 33.7389 -84.5858 132° Southeast 312 359 12,000 -660 Level Atlanta Center
07:22PM 33.7333 -84.4500 93° East 306 352 10,400 -1,380 Descending Atlanta TRACON
07:23PM 33.7333 -84.3500 90° East 290 334 8,700 -1,680 Descending Atlanta TRACON
07:24PM 33.7333 -84.2500 90° East 280 322 6,900 -1,740 Descending Atlanta TRACON
07:25PM 33.7333 -84.1667 90° East 277 319 5,300 -1,020 Descending Atlanta TRACON
07:26PM 33.7333 -84.0667 90° East 282 325 5,000 -180 Descending Atlanta TRACON
07:27PM 33.7167 -83.9833 103° East 234 269 5,000  Level Atlanta TRACON
07:28PM 33.6667 -83.9833 180° South 209 241 5,000  Level Atlanta TRACON
07:29PM 33.6500 -84.0500 253° West 191 220 5,000  Level Atlanta TRACON
07:30PM 33.6500 -84.1167 270° West 192 221 5,000 -180 Level Atlanta TRACON
07:31PM 33.6500 -84.1833 270° West 192 221 4,700 -720 Descending Atlanta TRACON
07:32PM 33.6500 -84.2500 270° West 189 217 3,600 -1,020 Descending Atlanta TRACON
07:33PM 33.6500 -84.3000 270° West 183 211 2,700 -900 Descending Atlanta TRACON
07:34PM 33.6500 -84.3500 270° West 139 160 1,900 -780 Descending Atlanta TRACON
07:35PM 33.6500 -84.4000 270° West 137 158 1,200 -720 Descending Atlanta TRACON